createdAt,value
2019-04-21T00:00:06.225Z,13.03
2019-04-21T00:05:37.312Z,12.13
2019-04-21T00:10:39.972Z,11.87
2019-04-21T00:15:29.758Z,14.27
2019-04-21T00:20:35.231Z,11.33
2019-04-21T00:25:45.837Z,11.07
2019-04-21T00:30:56.972Z,13.00
2019-04-21T00:35:51.137Z,12.47
2019-04-21T00:41:05.487Z,13.73
2019-04-21T00:46:04.896Z,14.53
2019-04-21T00:56:27.618Z,15.97
2019-04-21T01:01:31.222Z,14.70
2019-04-21T01:06:35.207Z,14.63
2019-04-21T01:11:44.971Z,15.47
2019-04-21T01:16:45.826Z,16.57
2019-04-21T01:21:30.179Z,17.63
2019-04-21T01:26:43.964Z,15.47
2019-04-21T01:32:07.504Z,16.97
2019-04-21T01:37:00.106Z,19.13
2019-04-21T01:42:08.922Z,18.60
2019-04-21T01:47:13.100Z,16.47
2019-04-21T01:52:34.842Z,16.10
2019-04-21T01:57:42.533Z,18.13
2019-04-21T02:02:54.970Z,18.73
2019-04-21T02:07:57.755Z,19.50
2019-04-21T02:13:03.649Z,19.00
2019-04-21T02:18:06.068Z,23.70
2019-04-21T02:28:30.855Z,18.83
2019-04-21T02:33:36.272Z,19.07
2019-04-21T02:38:44.740Z,19.47
2019-04-21T02:43:48.213Z,21.00
2019-04-21T02:48:55.490Z,17.87
2019-04-21T02:59:06.724Z,18.77
2019-04-21T03:09:25.993Z,20.87
2019-04-21T03:14:38.494Z,18.57
2019-04-21T03:19:46.076Z,17.20
2019-04-21T03:24:53.980Z,20.03
2019-04-21T03:29:44.726Z,17.73
2019-04-21T03:35:15.017Z,21.20
2019-04-21T03:44:57.100Z,17.37
2019-04-21T04:00:49.844Z,17.30
2019-04-21T04:06:13.359Z,18.70
2019-04-21T04:11:12.350Z,18.37
2019-04-21T04:16:10.567Z,19.93
2019-04-21T04:21:19.933Z,18.33
2019-04-21T04:26:15.326Z,25.03
2019-04-21T04:42:03.577Z,19.47
2019-04-21T04:47:04.562Z,14.93
2019-04-21T05:12:15.872Z,21.27
2019-04-21T05:17:37.750Z,18.70
2019-04-21T05:22:31.131Z,17.60
2019-04-21T05:27:36.538Z,16.83
2019-04-21T05:33:01.291Z,16.73
2019-04-21T05:38:06.237Z,16.83
2019-04-21T05:43:07.940Z,17.00
2019-04-21T05:48:22.915Z,19.83
2019-04-21T05:53:29.974Z,16.43
2019-04-21T05:58:27.254Z,20.27
2019-04-21T06:03:44.511Z,18.63
2019-04-21T06:08:42.416Z,18.83
2019-04-21T06:13:49.827Z,18.50
2019-04-21T06:18:52.946Z,20.83
2019-04-21T06:23:57.304Z,20.60
2019-04-21T06:29:00.972Z,18.53
2019-04-21T06:34:06.741Z,16.37
2019-04-21T06:44:23.684Z,17.57
2019-04-21T06:49:22.284Z,15.13
2019-04-21T06:54:30.495Z,15.30
2019-04-21T06:59:33.736Z,12.17
2019-04-21T07:04:46.489Z,13.70
2019-04-21T07:09:52.968Z,13.20
2019-04-21T07:14:53.342Z,15.23
2019-04-21T07:20:00.140Z,13.40
2019-04-21T07:25:10.768Z,12.30
2019-04-21T07:30:14.851Z,14.20
2019-04-21T07:35:18.924Z,16.07
2019-04-21T07:40:13.437Z,14.57
2019-04-21T07:45:16.582Z,13.33
2019-04-21T07:50:38.266Z,13.77
2019-04-21T08:01:07.870Z,12.80
2019-04-21T08:05:58.600Z,15.60
2019-04-21T08:10:57.335Z,12.77
2019-04-21T08:16:06.185Z,14.53
2019-04-21T08:21:09.056Z,12.37
2019-04-21T08:26:20.343Z,12.47
2019-04-21T08:31:27.937Z,14.80
2019-04-21T08:41:30.915Z,12.77
2019-04-21T08:46:39.198Z,12.43
2019-04-21T08:52:06.205Z,12.30
2019-04-21T08:56:46.797Z,12.47
2019-04-21T09:01:57.306Z,13.30
2019-04-21T09:07:20.014Z,13.13
2019-04-21T09:12:04.366Z,13.97
2019-04-21T09:17:08.311Z,10.77
2019-04-21T09:22:17.888Z,11.83
2019-04-21T09:27:19.886Z,9.40
2019-04-21T09:32:18.493Z,11.23
2019-04-21T09:37:28.831Z,12.33
2019-04-21T09:42:33.341Z,11.20
2019-04-21T09:47:38.478Z,11.13
2019-04-21T09:52:44.381Z,23.77
2019-04-21T09:57:47.517Z,11.30
2019-04-21T10:02:54.613Z,12.13
2019-04-21T10:07:50.771Z,11.43
2019-04-21T10:12:54.363Z,10.50
2019-04-21T10:18:02.731Z,9.70
2019-04-21T10:23:07.187Z,13.17
2019-04-21T10:28:11.026Z,11.67
2019-04-21T10:33:14.727Z,9.70
2019-04-21T10:38:29.209Z,10.40
2019-04-21T10:43:24.386Z,10.53
2019-04-21T10:48:31.274Z,10.10
2019-04-21T10:53:36.721Z,9.40
2019-04-21T10:58:42.501Z,9.13
2019-04-21T11:03:53.021Z,10.93
2019-04-21T11:08:58.975Z,12.97
2019-04-21T11:14:02.439Z,10.80
2019-04-21T11:19:06.362Z,9.20
2019-04-21T11:24:10.232Z,7.60
2019-04-21T11:29:14.959Z,6.90
2019-04-21T11:34:18.865Z,8.10
2019-04-21T11:39:35.170Z,9.13
2019-04-21T11:44:29.232Z,7.80
2019-04-21T11:49:32.711Z,8.30
2019-04-21T11:54:37.056Z,8.47
2019-04-21T11:59:41.716Z,8.23
2019-04-21T12:04:45.485Z,11.17
2019-04-21T12:09:48.959Z,11.83
2019-04-21T12:14:52.553Z,8.93
2019-04-21T12:19:56.913Z,7.23
2019-04-21T12:25:00.936Z,11.67
2019-04-21T12:30:07.535Z,7.97
2019-04-21T12:35:12.785Z,9.80
2019-04-21T12:40:16.818Z,11.50
2019-04-21T12:45:24.184Z,7.63
2019-04-21T12:50:27.846Z,12.77
2019-04-21T12:55:36.624Z,8.53
2019-04-21T13:00:36.849Z,7.47
2019-04-21T13:05:40.374Z,8.50
2019-04-21T13:10:44.314Z,9.33
2019-04-21T13:15:49.308Z,8.13
2019-04-21T13:20:54.064Z,7.63
2019-04-21T13:25:57.655Z,7.37
2019-04-21T13:31:02.317Z,7.43
2019-04-21T13:36:07.520Z,9.83
2019-04-21T13:41:29.773Z,6.43
2019-04-21T13:46:20.701Z,7.40
2019-04-21T13:51:25.087Z,7.20
2019-04-21T13:56:28.896Z,7.50
2019-04-21T14:01:33.953Z,6.50
2019-04-21T14:06:38.427Z,7.57
2019-04-21T14:11:43.454Z,9.87
2019-04-21T14:16:47.966Z,5.00
2019-04-21T14:21:53.089Z,5.57
2019-04-21T14:26:56.757Z,5.53
2019-04-21T14:32:00.215Z,7.03
2019-04-21T14:37:04.498Z,21.30
2019-04-21T14:42:08.432Z,7.83
2019-04-21T14:47:31.431Z,6.40
2019-04-21T14:52:37.093Z,6.80
2019-04-21T14:57:41.137Z,5.60
2019-04-21T15:02:45.522Z,5.50
2019-04-21T15:07:49.189Z,6.43
2019-04-21T15:12:53.713Z,6.73
2019-04-21T15:17:59.863Z,6.80
2019-04-21T15:23:04.266Z,5.60
2019-04-21T15:28:08.062Z,7.03
2019-04-21T15:33:12.694Z,4.80
2019-04-21T15:38:16.232Z,6.17
2019-04-21T15:43:20.326Z,6.60
2019-04-21T15:48:24.022Z,5.87
2019-04-21T15:53:29.783Z,8.87
2019-04-21T15:58:48.384Z,6.67
2019-04-21T16:03:56.967Z,5.87
2019-04-21T16:09:00.886Z,52.17
2019-04-21T16:14:04.026Z,11.43
2019-04-21T16:19:08.139Z,5.77
2019-04-21T16:24:12.238Z,6.40
2019-04-21T16:29:17.261Z,18.93
2019-04-21T16:34:21.996Z,8.30
2019-04-21T16:39:25.522Z,16.10
2019-04-21T16:44:29.389Z,37.20
2019-04-21T16:49:33.727Z,27.37
2019-04-21T16:54:37.895Z,12.53
2019-04-21T16:59:44.363Z,7.10
2019-04-21T17:04:48.591Z,7.57
2019-04-21T17:09:52.824Z,7.93
2019-04-21T17:15:12.277Z,7.57
2019-04-21T17:20:15.812Z,7.57
2019-04-21T17:25:08.732Z,8.77
2019-04-21T17:30:15.142Z,8.83
2019-04-21T17:35:19.830Z,8.77
2019-04-21T17:40:26.463Z,6.23
2019-04-21T17:45:31.104Z,7.57
2019-04-21T17:50:49.495Z,13.70
2019-04-21T17:56:16.729Z,26.47
2019-04-21T18:01:29.721Z,22.10
2019-04-21T18:06:25.786Z,12.13
2019-04-21T18:11:37.106Z,11.87
2019-04-21T18:16:29.065Z,7.50
2019-04-21T18:21:46.940Z,7.03
2019-04-21T18:26:54.387Z,7.23
2019-04-21T18:31:54.598Z,8.10
2019-04-21T18:37:05.483Z,7.70
2019-04-21T18:42:26.356Z,21.07
2019-04-21T18:47:35.564Z,8.63
2019-04-21T18:52:45.806Z,13.83
2019-04-21T18:57:42.059Z,11.17
2019-04-21T19:02:45.535Z,18.13
2019-04-21T19:08:02.939Z,13.57
2019-04-21T19:13:29.144Z,13.33
2019-04-21T19:18:35.126Z,10.73
2019-04-21T19:23:27.125Z,14.23
2019-04-21T19:28:24.616Z,14.20
2019-04-21T19:33:30.645Z,14.50
2019-04-21T19:38:30.646Z,16.23
2019-04-21T19:43:49.209Z,13.57
2019-04-21T19:48:56.560Z,14.73
2019-04-21T19:53:44.393Z,14.67
2019-04-21T19:58:43.561Z,17.37
2019-04-21T20:03:48.619Z,16.37
2019-04-21T20:09:08.380Z,17.20
2019-04-21T20:14:43.144Z,17.93
2019-04-21T20:19:06.865Z,16.87
2019-04-21T20:24:11.170Z,21.53
2019-04-21T20:29:31.005Z,29.90
2019-04-21T20:34:38.761Z,21.07
2019-04-21T20:39:28.335Z,34.47
2019-04-21T20:44:52.850Z,28.43
2019-04-21T20:49:41.745Z,26.80
2019-04-21T20:54:53.916Z,19.73
2019-04-21T21:00:08.755Z,20.47
2019-04-21T21:05:00.690Z,19.50
2019-04-21T21:10:14.126Z,20.57
2019-04-21T21:15:10.006Z,20.43
2019-04-21T21:20:29.488Z,25.07
2019-04-21T21:25:40.083Z,44.97
2019-04-21T21:30:32.422Z,30.80
2019-04-21T21:35:35.931Z,22.73
2019-04-21T21:40:45.542Z,18.83
2019-04-21T21:45:42.340Z,18.17
2019-04-21T21:50:54.302Z,19.23
2019-04-21T21:55:48.797Z,17.07
2019-04-21T22:00:58.522Z,16.40
2019-04-21T22:06:04.965Z,16.30
2019-04-21T22:11:05.447Z,14.60
2019-04-21T22:16:14.060Z,16.83
2019-04-21T22:21:34.066Z,16.23
2019-04-21T22:26:20.668Z,17.03
2019-04-21T22:31:30.083Z,16.57
2019-04-21T22:36:43.731Z,16.00
2019-04-21T22:41:41.215Z,21.17
2019-04-21T22:46:52.941Z,17.00
2019-04-21T22:51:49.291Z,16.73
2019-04-21T22:56:58.582Z,15.73
2019-04-21T23:01:56.169Z,17.73
2019-04-21T23:07:06.968Z,18.83
2019-04-21T23:12:06.222Z,17.03
2019-04-21T23:17:29.551Z,18.63
2019-04-21T23:22:34.054Z,21.33
2019-04-21T23:27:38.747Z,18.17
2019-04-21T23:32:36.315Z,17.77
2019-04-21T23:37:34.131Z,17.47
2019-04-21T23:42:41.552Z,16.67
2019-04-21T23:47:53.709Z,17.00
2019-04-21T23:52:47.767Z,19.87
2019-04-21T23:57:56.128Z,16.43
